sensor_id;sensor_type;location;lat;lon;timestamp;temperature;humidity
32614;DHT22;19031;51.400;6.770;2023-04-24T00:01:30;11.50;99.90
32614;DHT22;19031;51.400;6.770;2023-04-24T00:03:56;11.50;99.90
32614;DHT22;19031;51.400;6.770;2023-04-24T00:06:27;11.60;99.90
32614;DHT22;19031;51.400;6.770;2023-04-24T00:08:59;11.50;99.90
32614;DHT22;19031;51.400;6.770;2023-04-24T00:11:26;11.60;99.90
32614;DHT22;19031;51.400;6.770;2023-04-24T00:13:52;11.50;99.90
32614;DHT22;19031;51.400;6.770;2023-04-24T00:16:17;11.60;99.90
32614;DHT22;19031;51.400;6.770;2023-04-24T00:18:43;11.50;99.90
32614;DHT22;19031;51.400;6.770;2023-04-24T00:21:10;11.50;99.90
32614;DHT22;19031;51.400;6.770;2023-04-24T00:23:36;11.50;99.90
32614;DHT22;19031;51.400;6.770;2023-04-24T00:26:02;11.40;99.90
32614;DHT22;19031;51.400;6.770;2023-04-24T00:28:27;11.40;99.90
32614;DHT22;19031;51.400;6.770;2023-04-24T00:30:53;11.40;99.90
32614;DHT22;19031;51.400;6.770;2023-04-24T00:33:22;12.10;99.90
32614;DHT22;19031;51.400;6.770;2023-04-24T00:35:52;11.40;99.90
32614;DHT22;19031;51.400;6.770;2023-04-24T00:38:18;11.30;99.90
32614;DHT22;19031;51.400;6.770;2023-04-24T00:40:44;11.30;99.90
32614;DHT22;19031;51.400;6.770;2023-04-24T00:43:10;11.30;99.90
32614;DHT22;19031;51.400;6.770;2023-04-24T00:45:36;11.20;99.90
32614;DHT22;19031;51.400;6.770;2023-04-24T00:48:02;11.10;99.90
32614;DHT22;19031;51.400;6.770;2023-04-24T00:50:31;11.10;99.90
32614;DHT22;19031;51.400;6.770;2023-04-24T00:52:56;11.10;99.90
32614;DHT22;19031;51.400;6.770;2023-04-24T00:55:22;11.00;99.90
32614;DHT22;19031;51.400;6.770;2023-04-24T00:57:50;10.90;99.90
32614;DHT22;19031;51.400;6.770;2023-04-24T01:00:16;10.90;99.90
32614;DHT22;19031;51.400;6.770;2023-04-24T01:02:46;10.80;99.90
32614;DHT22;19031;51.400;6.770;2023-04-24T01:05:13;10.80;99.90
32614;DHT22;19031;51.400;6.770;2023-04-24T01:07:41;10.70;99.90
32614;DHT22;19031;51.400;6.770;2023-04-24T01:10:10;10.60;99.90
32614;DHT22;19031;51.400;6.770;2023-04-24T01:12:38;10.60;99.90
32614;DHT22;19031;51.400;6.770;2023-04-24T01:15:04;10.50;99.90
32614;DHT22;19031;51.400;6.770;2023-04-24T01:17:32;10.40;99.90
32614;DHT22;19031;51.400;6.770;2023-04-24T01:19:58;10.50;99.90
32614;DHT22;19031;51.400;6.770;2023-04-24T01:22:25;10.40;99.90
32614;DHT22;19031;51.400;6.770;2023-04-24T01:24:51;10.20;99.90
32614;DHT22;19031;51.400;6.770;2023-04-24T01:27:17;10.30;99.90
32614;DHT22;19031;51.400;6.770;2023-04-24T01:29:43;10.20;99.90
32614;DHT22;19031;51.400;6.770;2023-04-24T01:32:09;10.10;99.90
32614;DHT22;19031;51.400;6.770;2023-04-24T01:34:34;10.10;99.90
32614;DHT22;19031;51.400;6.770;2023-04-24T01:37:00;10.10;99.90
32614;DHT22;19031;51.400;6.770;2023-04-24T01:39:26;10.10;99.90
32614;DHT22;19031;51.400;6.770;2023-04-24T01:41:54;10.10;99.90
32614;DHT22;19031;51.400;6.770;2023-04-24T01:44:20;10.10;99.90
32614;DHT22;19031;51.400;6.770;2023-04-24T01:46:45;10.10;99.90
32614;DHT22;19031;51.400;6.770;2023-04-24T01:49:11;10.10;99.90
32614;DHT22;19031;51.400;6.770;2023-04-24T01:51:37;10.10;99.90
32614;DHT22;19031;51.400;6.770;2023-04-24T01:54:03;10.10;99.90
32614;DHT22;19031;51.400;6.770;2023-04-24T01:56:29;10.10;99.90
32614;DHT22;19031;51.400;6.770;2023-04-24T01:58:56;10.10;99.90
32614;DHT22;19031;51.400;6.770;2023-04-24T02:01:24;10.20;99.90
32614;DHT22;19031;51.400;6.770;2023-04-24T02:03:50;10.10;99.90
32614;DHT22;19031;51.400;6.770;2023-04-24T02:06:15;10.20;99.90
32614;DHT22;19031;51.400;6.770;2023-04-24T02:08:41;10.20;99.90
32614;DHT22;19031;51.400;6.770;2023-04-24T02:11:09;10.20;99.90
32614;DHT22;19031;51.400;6.770;2023-04-24T02:13:34;10.10;99.90
32614;DHT22;19031;51.400;6.770;2023-04-24T02:16:00;10.10;99.90
32614;DHT22;19031;51.400;6.770;2023-04-24T02:18:26;10.20;99.90
32614;DHT22;19031;51.400;6.770;2023-04-24T02:20:51;10.10;99.90
32614;DHT22;19031;51.400;6.770;2023-04-24T02:23:17;10.10;99.90
32614;DHT22;19031;51.400;6.770;2023-04-24T02:25:43;10.10;99.90
32614;DHT22;19031;51.400;6.770;2023-04-24T02:28:08;10.10;99.90
32614;DHT22;19031;51.400;6.770;2023-04-24T02:30:34;10.10;99.90
32614;DHT22;19031;51.400;6.770;2023-04-24T02:32:59;10.10;99.90
32614;DHT22;19031;51.400;6.770;2023-04-24T02:35:25;10.00;99.90
32614;DHT22;19031;51.400;6.770;2023-04-24T02:37:51;10.10;99.90
32614;DHT22;19031;51.400;6.770;2023-04-24T02:40:16;10.00;99.90
32614;DHT22;19031;51.400;6.770;2023-04-24T02:42:42;10.00;99.90
32614;DHT22;19031;51.400;6.770;2023-04-24T02:45:08;10.10;99.90
32614;DHT22;19031;51.400;6.770;2023-04-24T02:47:33;10.00;99.90
32614;DHT22;19031;51.400;6.770;2023-04-24T02:49:59;10.10;99.90
32614;DHT22;19031;51.400;6.770;2023-04-24T02:52:24;10.10;99.90
32614;DHT22;19031;51.400;6.770;2023-04-24T02:54:50;10.00;99.90
32614;DHT22;19031;51.400;6.770;2023-04-24T02:57:15;10.10;99.90
32614;DHT22;19031;51.400;6.770;2023-04-24T02:59:41;10.20;99.90
32614;DHT22;19031;51.400;6.770;2023-04-24T03:02:07;10.10;99.90
32614;DHT22;19031;51.400;6.770;2023-04-24T03:04:32;10.10;99.90
32614;DHT22;19031;51.400;6.770;2023-04-24T03:06:58;10.00;99.90
32614;DHT22;19031;51.400;6.770;2023-04-24T03:09:24;10.10;99.90
32614;DHT22;19031;51.400;6.770;2023-04-24T03:11:50;10.20;99.90
32614;DHT22;19031;51.400;6.770;2023-04-24T03:14:16;10.20;99.90
32614;DHT22;19031;51.400;6.770;2023-04-24T03:16:41;10.30;99.90
32614;DHT22;19031;51.400;6.770;2023-04-24T03:19:07;10.20;99.90
32614;DHT22;19031;51.400;6.770;2023-04-24T03:21:33;10.20;99.90
32614;DHT22;19031;51.400;6.770;2023-04-24T03:23:58;10.20;99.90
32614;DHT22;19031;51.400;6.770;2023-04-24T03:26:24;10.30;99.90
32614;DHT22;19031;51.400;6.770;2023-04-24T03:28:50;10.30;99.90
32614;DHT22;19031;51.400;6.770;2023-04-24T03:31:15;10.20;99.90
32614;DHT22;19031;51.400;6.770;2023-04-24T03:33:42;10.20;99.90
32614;DHT22;19031;51.400;6.770;2023-04-24T03:36:07;10.20;99.90
32614;DHT22;19031;51.400;6.770;2023-04-24T03:38:33;10.20;99.90
32614;DHT22;19031;51.400;6.770;2023-04-24T03:40:58;10.20;99.90
32614;DHT22;19031;51.400;6.770;2023-04-24T03:43:24;10.30;99.90
32614;DHT22;19031;51.400;6.770;2023-04-24T03:45:50;10.30;99.90
32614;DHT22;19031;51.400;6.770;2023-04-24T03:48:16;10.20;99.90
32614;DHT22;19031;51.400;6.770;2023-04-24T03:50:41;10.20;99.90
32614;DHT22;19031;51.400;6.770;2023-04-24T03:53:07;10.30;99.90
32614;DHT22;19031;51.400;6.770;2023-04-24T03:55:33;10.30;99.90
32614;DHT22;19031;51.400;6.770;2023-04-24T03:57:59;10.30;99.90
32614;DHT22;19031;51.400;6.770;2023-04-24T04:00:24;10.30;99.90
32614;DHT22;19031;51.400;6.770;2023-04-24T04:02:51;10.30;99.90
32614;DHT22;19031;51.400;6.770;2023-04-24T04:05:17;10.20;99.90
32614;DHT22;19031;51.400;6.770;2023-04-24T04:07:42;10.20;99.90
32614;DHT22;19031;51.400;6.770;2023-04-24T04:10:08;10.30;99.90
32614;DHT22;19031;51.400;6.770;2023-04-24T04:12:33;10.30;99.90
32614;DHT22;19031;51.400;6.770;2023-04-24T04:14:59;10.30;99.90
32614;DHT22;19031;51.400;6.770;2023-04-24T04:17:25;10.30;99.90
32614;DHT22;19031;51.400;6.770;2023-04-24T04:19:51;10.30;99.90
32614;DHT22;19031;51.400;6.770;2023-04-24T04:22:16;10.40;99.90
32614;DHT22;19031;51.400;6.770;2023-04-24T04:24:42;10.30;99.90
32614;DHT22;19031;51.400;6.770;2023-04-24T04:27:08;10.40;99.90
32614;DHT22;19031;51.400;6.770;2023-04-24T04:29:34;10.30;99.90
32614;DHT22;19031;51.400;6.770;2023-04-24T04:32:00;10.30;99.90
32614;DHT22;19031;51.400;6.770;2023-04-24T04:34:26;10.30;99.90
32614;DHT22;19031;51.400;6.770;2023-04-24T04:36:52;10.40;99.90
32614;DHT22;19031;51.400;6.770;2023-04-24T04:39:18;10.30;99.90
32614;DHT22;19031;51.400;6.770;2023-04-24T04:41:44;10.30;99.90
32614;DHT22;19031;51.400;6.770;2023-04-24T04:44:11;10.40;99.90
32614;DHT22;19031;51.400;6.770;2023-04-24T04:46:37;10.40;99.90
32614;DHT22;19031;51.400;6.770;2023-04-24T04:49:03;10.40;99.90
32614;DHT22;19031;51.400;6.770;2023-04-24T04:51:29;10.40;99.90
32614;DHT22;19031;51.400;6.770;2023-04-24T04:53:56;10.30;99.90
32614;DHT22;19031;51.400;6.770;2023-04-24T04:56:21;10.30;99.90
32614;DHT22;19031;51.400;6.770;2023-04-24T04:58:47;10.30;99.90
32614;DHT22;19031;51.400;6.770;2023-04-24T05:01:13;10.30;99.90
32614;DHT22;19031;51.400;6.770;2023-04-24T05:03:39;10.30;99.90
32614;DHT22;19031;51.400;6.770;2023-04-24T05:06:05;10.20;99.90
32614;DHT22;19031;51.400;6.770;2023-04-24T05:08:31;10.20;99.90
32614;DHT22;19031;51.400;6.770;2023-04-24T05:10:56;10.10;99.90
32614;DHT22;19031;51.400;6.770;2023-04-24T05:13:22;10.00;99.90
32614;DHT22;19031;51.400;6.770;2023-04-24T05:15:47;10.10;99.90
32614;DHT22;19031;51.400;6.770;2023-04-24T05:18:13;10.00;99.90
32614;DHT22;19031;51.400;6.770;2023-04-24T05:20:39;9.90;99.90
32614;DHT22;19031;51.400;6.770;2023-04-24T05:23:04;9.90;99.90
32614;DHT22;19031;51.400;6.770;2023-04-24T05:25:30;9.80;99.90
32614;DHT22;19031;51.400;6.770;2023-04-24T05:28:00;9.60;99.90
32614;DHT22;19031;51.400;6.770;2023-04-24T05:30:26;9.60;99.90
32614;DHT22;19031;51.400;6.770;2023-04-24T05:32:51;9.60;99.90
32614;DHT22;19031;51.400;6.770;2023-04-24T05:35:17;9.60;99.90
32614;DHT22;19031;51.400;6.770;2023-04-24T05:37:44;9.70;99.90
32614;DHT22;19031;51.400;6.770;2023-04-24T05:40:10;9.60;99.90
32614;DHT22;19031;51.400;6.770;2023-04-24T05:42:36;9.60;99.90
32614;DHT22;19031;51.400;6.770;2023-04-24T05:45:02;9.50;99.90
32614;DHT22;19031;51.400;6.770;2023-04-24T05:47:28;9.50;99.90
32614;DHT22;19031;51.400;6.770;2023-04-24T05:49:53;9.60;99.90
32614;DHT22;19031;51.400;6.770;2023-04-24T05:52:19;9.60;99.90
32614;DHT22;19031;51.400;6.770;2023-04-24T05:54:45;9.60;99.90
32614;DHT22;19031;51.400;6.770;2023-04-24T05:57:10;9.60;99.90
32614;DHT22;19031;51.400;6.770;2023-04-24T05:59:37;9.50;99.90
32614;DHT22;19031;51.400;6.770;2023-04-24T06:02:06;9.70;99.90
32614;DHT22;19031;51.400;6.770;2023-04-24T06:04:32;9.70;99.90
32614;DHT22;19031;51.400;6.770;2023-04-24T06:06:59;9.70;99.90
32614;DHT22;19031;51.400;6.770;2023-04-24T06:09:25;9.80;99.90
32614;DHT22;19031;51.400;6.770;2023-04-24T06:11:51;9.70;99.90
32614;DHT22;19031;51.400;6.770;2023-04-24T06:14:19;9.60;99.90
32614;DHT22;19031;51.400;6.770;2023-04-24T06:16:44;9.70;99.90
32614;DHT22;19031;51.400;6.770;2023-04-24T06:19:10;9.70;99.90
32614;DHT22;19031;51.400;6.770;2023-04-24T06:21:36;9.70;99.90
32614;DHT22;19031;51.400;6.770;2023-04-24T06:24:01;9.60;99.90
32614;DHT22;19031;51.400;6.770;2023-04-24T06:26:27;9.50;99.90
32614;DHT22;19031;51.400;6.770;2023-04-24T06:28:53;9.70;99.90
32614;DHT22;19031;51.400;6.770;2023-04-24T06:31:19;9.60;99.90
32614;DHT22;19031;51.400;6.770;2023-04-24T06:33:45;9.70;99.90
32614;DHT22;19031;51.400;6.770;2023-04-24T06:36:12;9.60;99.90
32614;DHT22;19031;51.400;6.770;2023-04-24T06:38:38;9.50;99.90
32614;DHT22;19031;51.400;6.770;2023-04-24T06:41:03;9.60;99.90
32614;DHT22;19031;51.400;6.770;2023-04-24T06:43:31;9.60;99.90
32614;DHT22;19031;51.400;6.770;2023-04-24T06:45:57;9.50;99.90
32614;DHT22;19031;51.400;6.770;2023-04-24T06:48:24;9.50;99.90
32614;DHT22;19031;51.400;6.770;2023-04-24T06:50:53;9.50;99.90
32614;DHT22;19031;51.400;6.770;2023-04-24T06:53:19;9.50;99.90
32614;DHT22;19031;51.400;6.770;2023-04-24T06:55:47;9.40;99.90
32614;DHT22;19031;51.400;6.770;2023-04-24T06:58:13;9.40;99.90
32614;DHT22;19031;51.400;6.770;2023-04-24T07:00:43;9.60;99.90
32614;DHT22;19031;51.400;6.770;2023-04-24T07:03:09;9.50;99.90
32614;DHT22;19031;51.400;6.770;2023-04-24T07:05:35;9.50;99.90
32614;DHT22;19031;51.400;6.770;2023-04-24T07:08:03;9.60;99.90
32614;DHT22;19031;51.400;6.770;2023-04-24T07:10:29;9.60;99.90
32614;DHT22;19031;51.400;6.770;2023-04-24T07:12:58;9.60;99.90
32614;DHT22;19031;51.400;6.770;2023-04-24T07:15:24;9.50;99.90
32614;DHT22;19031;51.400;6.770;2023-04-24T07:17:52;9.50;99.90
32614;DHT22;19031;51.400;6.770;2023-04-24T07:20:18;9.50;99.90
32614;DHT22;19031;51.400;6.770;2023-04-24T07:22:43;9.40;99.90
32614;DHT22;19031;51.400;6.770;2023-04-24T07:25:09;9.20;99.90
32614;DHT22;19031;51.400;6.770;2023-04-24T07:27:35;9.30;99.90
32614;DHT22;19031;51.400;6.770;2023-04-24T07:30:02;9.30;99.90
32614;DHT22;19031;51.400;6.770;2023-04-24T07:32:28;9.30;99.90
32614;DHT22;19031;51.400;6.770;2023-04-24T07:34:53;9.30;99.90
32614;DHT22;19031;51.400;6.770;2023-04-24T07:37:19;9.30;99.90
32614;DHT22;19031;51.400;6.770;2023-04-24T07:39:45;9.30;99.90
32614;DHT22;19031;51.400;6.770;2023-04-24T07:42:11;9.30;99.90
32614;DHT22;19031;51.400;6.770;2023-04-24T07:44:36;9.30;99.90
32614;DHT22;19031;51.400;6.770;2023-04-24T07:47:02;9.20;99.90
32614;DHT22;19031;51.400;6.770;2023-04-24T07:49:28;9.20;99.90
32614;DHT22;19031;51.400;6.770;2023-04-24T07:51:53;9.20;99.90
32614;DHT22;19031;51.400;6.770;2023-04-24T07:54:19;9.10;99.90
32614;DHT22;19031;51.400;6.770;2023-04-24T07:56:44;9.00;99.90
32614;DHT22;19031;51.400;6.770;2023-04-24T07:59:10;9.00;99.90
32614;DHT22;19031;51.400;6.770;2023-04-24T08:01:36;9.10;99.90
32614;DHT22;19031;51.400;6.770;2023-04-24T08:04:01;9.20;99.90
32614;DHT22;19031;51.400;6.770;2023-04-24T08:06:28;9.00;99.90
32614;DHT22;19031;51.400;6.770;2023-04-24T08:08:56;9.10;99.90
32614;DHT22;19031;51.400;6.770;2023-04-24T08:11:22;9.10;99.90
32614;DHT22;19031;51.400;6.770;2023-04-24T08:13:47;9.20;99.90
32614;DHT22;19031;51.400;6.770;2023-04-24T08:16:13;9.10;99.90
32614;DHT22;19031;51.400;6.770;2023-04-24T08:18:38;9.00;99.90
32614;DHT22;19031;51.400;6.770;2023-04-24T08:21:04;9.00;99.90
32614;DHT22;19031;51.400;6.770;2023-04-24T08:23:30;9.00;99.90
32614;DHT22;19031;51.400;6.770;2023-04-24T08:25:56;9.00;99.90
32614;DHT22;19031;51.400;6.770;2023-04-24T08:28:22;8.90;99.90
32614;DHT22;19031;51.400;6.770;2023-04-24T08:30:48;9.00;99.90
32614;DHT22;19031;51.400;6.770;2023-04-24T08:33:14;9.00;99.90
32614;DHT22;19031;51.400;6.770;2023-04-24T08:35:40;9.00;99.90
32614;DHT22;19031;51.400;6.770;2023-04-24T08:38:06;9.00;99.90
32614;DHT22;19031;51.400;6.770;2023-04-24T08:40:34;9.10;99.90
32614;DHT22;19031;51.400;6.770;2023-04-24T08:43:00;9.10;99.90
32614;DHT22;19031;51.400;6.770;2023-04-24T08:45:26;9.00;99.90
32614;DHT22;19031;51.400;6.770;2023-04-24T08:47:55;9.10;99.90
32614;DHT22;19031;51.400;6.770;2023-04-24T08:50:21;9.20;99.90
32614;DHT22;19031;51.400;6.770;2023-04-24T08:52:50;9.10;99.90
32614;DHT22;19031;51.400;6.770;2023-04-24T08:55:16;9.20;99.90
32614;DHT22;19031;51.400;6.770;2023-04-24T08:57:47;9.30;99.90
32614;DHT22;19031;51.400;6.770;2023-04-24T09:00:15;9.30;99.90
32614;DHT22;19031;51.400;6.770;2023-04-24T09:02:45;9.20;99.90
32614;DHT22;19031;51.400;6.770;2023-04-24T09:05:13;9.20;99.90
32614;DHT22;19031;51.400;6.770;2023-04-24T09:07:39;9.20;99.90
32614;DHT22;19031;51.400;6.770;2023-04-24T09:10:07;9.30;99.90
32614;DHT22;19031;51.400;6.770;2023-04-24T09:12:34;9.10;99.90
32614;DHT22;19031;51.400;6.770;2023-04-24T09:15:00;9.20;99.90
32614;DHT22;19031;51.400;6.770;2023-04-24T09:17:29;9.20;99.90
32614;DHT22;19031;51.400;6.770;2023-04-24T09:19:56;9.10;99.90
32614;DHT22;19031;51.400;6.770;2023-04-24T09:22:22;9.00;99.90
32614;DHT22;19031;51.400;6.770;2023-04-24T09:24:48;9.10;99.90
32614;DHT22;19031;51.400;6.770;2023-04-24T09:27:24;9.00;99.90
32614;DHT22;19031;51.400;6.770;2023-04-24T09:29:54;8.90;99.90
32614;DHT22;19031;51.400;6.770;2023-04-24T09:32:22;9.00;99.90
32614;DHT22;19031;51.400;6.770;2023-04-24T09:35:04;9.00;99.90
32614;DHT22;19031;51.400;6.770;2023-04-24T09:37:30;8.90;99.90
32614;DHT22;19031;51.400;6.770;2023-04-24T09:40:19;8.90;99.90
32614;DHT22;19031;51.400;6.770;2023-04-24T09:42:55;8.90;99.90
32614;DHT22;19031;51.400;6.770;2023-04-24T09:45:22;8.90;99.90
32614;DHT22;19031;51.400;6.770;2023-04-24T09:47:52;8.90;99.90
32614;DHT22;19031;51.400;6.770;2023-04-24T09:50:21;9.00;99.90
32614;DHT22;19031;51.400;6.770;2023-04-24T09:52:59;9.00;99.90
32614;DHT22;19031;51.400;6.770;2023-04-24T09:55:26;9.00;99.90
32614;DHT22;19031;51.400;6.770;2023-04-24T09:57:58;9.00;99.90
32614;DHT22;19031;51.400;6.770;2023-04-24T10:00:30;9.10;99.90
32614;DHT22;19031;51.400;6.770;2023-04-24T10:03:01;9.10;99.90
32614;DHT22;19031;51.400;6.770;2023-04-24T10:05:35;9.10;99.90
32614;DHT22;19031;51.400;6.770;2023-04-24T10:10:28;9.20;99.90
32614;DHT22;19031;51.400;6.770;2023-04-24T10:12:55;9.20;99.90
32614;DHT22;19031;51.400;6.770;2023-04-24T10:15:21;9.20;99.90
32614;DHT22;19031;51.400;6.770;2023-04-24T10:17:48;9.30;99.90
32614;DHT22;19031;51.400;6.770;2023-04-24T10:20:19;9.30;99.90
32614;DHT22;19031;51.400;6.770;2023-04-24T10:22:48;9.30;99.90
32614;DHT22;19031;51.400;6.770;2023-04-24T10:25:16;9.50;99.90
32614;DHT22;19031;51.400;6.770;2023-04-24T10:27:42;9.40;99.90
32614;DHT22;19031;51.400;6.770;2023-04-24T10:30:09;9.40;99.90
32614;DHT22;19031;51.400;6.770;2023-04-24T10:32:36;9.50;99.90
32614;DHT22;19031;51.400;6.770;2023-04-24T10:35:01;9.70;99.90
32614;DHT22;19031;51.400;6.770;2023-04-24T10:37:28;9.70;99.90
32614;DHT22;19031;51.400;6.770;2023-04-24T10:39:54;9.70;99.90
32614;DHT22;19031;51.400;6.770;2023-04-24T10:42:21;9.70;99.90
32614;DHT22;19031;51.400;6.770;2023-04-24T10:44:48;9.70;99.90
32614;DHT22;19031;51.400;6.770;2023-04-24T10:47:14;9.70;99.90
32614;DHT22;19031;51.400;6.770;2023-04-24T10:49:40;9.80;99.90
32614;DHT22;19031;51.400;6.770;2023-04-24T10:52:06;10.00;99.90
32614;DHT22;19031;51.400;6.770;2023-04-24T10:54:45;9.90;99.90
32614;DHT22;19031;51.400;6.770;2023-04-24T10:59:49;10.10;99.90
32614;DHT22;19031;51.400;6.770;2023-04-24T11:02:16;10.10;99.90
32614;DHT22;19031;51.400;6.770;2023-04-24T11:04:43;10.40;99.90
32614;DHT22;19031;51.400;6.770;2023-04-24T11:07:09;10.60;99.90
32614;DHT22;19031;51.400;6.770;2023-04-24T11:09:35;10.80;99.90
32614;DHT22;19031;51.400;6.770;2023-04-24T11:12:11;10.90;99.90
32614;DHT22;19031;51.400;6.770;2023-04-24T11:20:04;10.80;99.90
32614;DHT22;19031;51.400;6.770;2023-04-24T11:22:34;10.60;99.90
32614;DHT22;19031;51.400;6.770;2023-04-24T11:25:03;10.50;99.90
32614;DHT22;19031;51.400;6.770;2023-04-24T11:27:31;10.40;99.90
32614;DHT22;19031;51.400;6.770;2023-04-24T11:30:01;10.30;99.90
32614;DHT22;19031;51.400;6.770;2023-04-24T11:35:13;10.00;99.90
32614;DHT22;19031;51.400;6.770;2023-04-24T11:37:41;10.20;99.90
32614;DHT22;19031;51.400;6.770;2023-04-24T11:40:09;10.40;99.90
32614;DHT22;19031;51.400;6.770;2023-04-24T11:42:36;10.60;99.90
32614;DHT22;19031;51.400;6.770;2023-04-24T11:45:11;10.80;99.90
32614;DHT22;19031;51.400;6.770;2023-04-24T11:47:37;10.90;99.90
32614;DHT22;19031;51.400;6.770;2023-04-24T11:50:04;10.90;99.90
32614;DHT22;19031;51.400;6.770;2023-04-24T11:52:30;11.10;99.90
32614;DHT22;19031;51.400;6.770;2023-04-24T11:54:56;11.40;99.90
32614;DHT22;19031;51.400;6.770;2023-04-24T11:57:24;11.40;99.90
32614;DHT22;19031;51.400;6.770;2023-04-24T11:59:51;11.40;99.90
32614;DHT22;19031;51.400;6.770;2023-04-24T12:02:24;11.20;99.90
32614;DHT22;19031;51.400;6.770;2023-04-24T12:04:50;11.10;99.90
32614;DHT22;19031;51.400;6.770;2023-04-24T12:07:16;11.00;99.90
32614;DHT22;19031;51.400;6.770;2023-04-24T12:09:58;10.90;99.90
32614;DHT22;19031;51.400;6.770;2023-04-24T12:12:26;10.80;99.90
32614;DHT22;19031;51.400;6.770;2023-04-24T12:17:25;10.80;99.90
32614;DHT22;19031;51.400;6.770;2023-04-24T12:19:51;10.70;99.90
32614;DHT22;19031;51.400;6.770;2023-04-24T12:22:17;10.70;99.90
32614;DHT22;19031;51.400;6.770;2023-04-24T12:24:58;10.70;99.90
32614;DHT22;19031;51.400;6.770;2023-04-24T12:27:24;10.70;99.90
32614;DHT22;19031;51.400;6.770;2023-04-24T12:29:57;10.80;99.90
32614;DHT22;19031;51.400;6.770;2023-04-24T12:32:24;11.00;99.90
32614;DHT22;19031;51.400;6.770;2023-04-24T12:34:51;10.90;99.90
32614;DHT22;19031;51.400;6.770;2023-04-24T12:37:19;11.00;99.90
32614;DHT22;19031;51.400;6.770;2023-04-24T12:40:06;11.20;99.90
32614;DHT22;19031;51.400;6.770;2023-04-24T12:42:32;11.30;99.90
32614;DHT22;19031;51.400;6.770;2023-04-24T12:45:03;11.50;99.90
32614;DHT22;19031;51.400;6.770;2023-04-24T12:47:30;11.40;99.90
32614;DHT22;19031;51.400;6.770;2023-04-24T12:49:56;11.60;99.90
32614;DHT22;19031;51.400;6.770;2023-04-24T12:52:23;11.90;99.90
32614;DHT22;19031;51.400;6.770;2023-04-24T12:54:55;11.80;99.90
32614;DHT22;19031;51.400;6.770;2023-04-24T12:57:23;11.90;99.90
32614;DHT22;19031;51.400;6.770;2023-04-24T12:59:48;11.80;99.90
32614;DHT22;19031;51.400;6.770;2023-04-24T13:02:14;11.80;99.90
32614;DHT22;19031;51.400;6.770;2023-04-24T13:04:44;11.60;99.90
32614;DHT22;19031;51.400;6.770;2023-04-24T13:07:10;11.20;99.90
32614;DHT22;19031;51.400;6.770;2023-04-24T13:09:35;11.20;99.90
32614;DHT22;19031;51.400;6.770;2023-04-24T13:12:01;11.10;99.90
32614;DHT22;19031;51.400;6.770;2023-04-24T13:14:27;11.10;99.90
32614;DHT22;19031;51.400;6.770;2023-04-24T13:16:52;11.10;99.90
32614;DHT22;19031;51.400;6.770;2023-04-24T13:19:18;11.00;99.90
32614;DHT22;19031;51.400;6.770;2023-04-24T13:21:44;10.90;99.90
32614;DHT22;19031;51.400;6.770;2023-04-24T13:24:09;10.90;99.90
32614;DHT22;19031;51.400;6.770;2023-04-24T13:26:35;10.80;99.90
32614;DHT22;19031;51.400;6.770;2023-04-24T13:29:01;10.80;99.90
32614;DHT22;19031;51.400;6.770;2023-04-24T13:31:26;10.90;99.90
32614;DHT22;19031;51.400;6.770;2023-04-24T13:33:52;10.90;99.90
32614;DHT22;19031;51.400;6.770;2023-04-24T13:36:17;11.00;99.90
32614;DHT22;19031;51.400;6.770;2023-04-24T13:38:44;11.20;99.90
32614;DHT22;19031;51.400;6.770;2023-04-24T13:41:10;11.30;99.90
32614;DHT22;19031;51.400;6.770;2023-04-24T13:43:35;11.30;99.90
32614;DHT22;19031;51.400;6.770;2023-04-24T13:46:01;11.20;99.90
32614;DHT22;19031;51.400;6.770;2023-04-24T13:48:28;11.30;99.90
32614;DHT22;19031;51.400;6.770;2023-04-24T13:50:54;11.40;99.90
32614;DHT22;19031;51.400;6.770;2023-04-24T13:53:20;11.50;99.90
32614;DHT22;19031;51.400;6.770;2023-04-24T13:55:45;11.40;99.90
32614;DHT22;19031;51.400;6.770;2023-04-24T13:58:11;11.50;99.90
32614;DHT22;19031;51.400;6.770;2023-04-24T14:00:36;11.50;99.90
32614;DHT22;19031;51.400;6.770;2023-04-24T14:03:02;11.70;99.90
32614;DHT22;19031;51.400;6.770;2023-04-24T14:05:28;12.00;99.90
32614;DHT22;19031;51.400;6.770;2023-04-24T14:07:53;12.20;99.90
32614;DHT22;19031;51.400;6.770;2023-04-24T14:10:19;12.20;99.90
32614;DHT22;19031;51.400;6.770;2023-04-24T14:12:45;12.20;99.90
32614;DHT22;19031;51.400;6.770;2023-04-24T14:15:10;12.30;99.90
32614;DHT22;19031;51.400;6.770;2023-04-24T14:17:36;12.40;99.90
32614;DHT22;19031;51.400;6.770;2023-04-24T14:20:01;12.30;99.90
32614;DHT22;19031;51.400;6.770;2023-04-24T14:22:29;12.20;99.90
32614;DHT22;19031;51.400;6.770;2023-04-24T14:24:55;12.20;99.90
32614;DHT22;19031;51.400;6.770;2023-04-24T14:27:21;12.10;99.90
32614;DHT22;19031;51.400;6.770;2023-04-24T14:29:46;12.10;99.90
32614;DHT22;19031;51.400;6.770;2023-04-24T14:32:12;12.00;99.90
32614;DHT22;19031;51.400;6.770;2023-04-24T14:34:40;11.80;99.90
32614;DHT22;19031;51.400;6.770;2023-04-24T14:37:05;11.60;99.90
32614;DHT22;19031;51.400;6.770;2023-04-24T14:39:31;11.60;99.90
32614;DHT22;19031;51.400;6.770;2023-04-24T14:41:56;11.50;99.90
32614;DHT22;19031;51.400;6.770;2023-04-24T14:44:22;11.40;99.90
32614;DHT22;19031;51.400;6.770;2023-04-24T14:46:48;11.30;99.90
32614;DHT22;19031;51.400;6.770;2023-04-24T14:49:14;11.20;99.90
32614;DHT22;19031;51.400;6.770;2023-04-24T14:51:40;11.20;99.90
32614;DHT22;19031;51.400;6.770;2023-04-24T14:54:06;11.10;99.90
32614;DHT22;19031;51.400;6.770;2023-04-24T14:56:32;11.10;99.90
32614;DHT22;19031;51.400;6.770;2023-04-24T14:58:57;11.20;99.90
32614;DHT22;19031;51.400;6.770;2023-04-24T15:01:23;11.10;99.90
32614;DHT22;19031;51.400;6.770;2023-04-24T15:03:52;11.20;99.90
32614;DHT22;19031;51.400;6.770;2023-04-24T15:06:17;11.30;99.90
32614;DHT22;19031;51.400;6.770;2023-04-24T15:08:43;11.40;99.90
32614;DHT22;19031;51.400;6.770;2023-04-24T15:11:09;11.40;99.90
32614;DHT22;19031;51.400;6.770;2023-04-24T15:13:35;11.60;99.90
32614;DHT22;19031;51.400;6.770;2023-04-24T15:16:01;11.90;99.90
32614;DHT22;19031;51.400;6.770;2023-04-24T15:18:27;12.10;99.90
32614;DHT22;19031;51.400;6.770;2023-04-24T15:20:54;12.30;99.90
32614;DHT22;19031;51.400;6.770;2023-04-24T15:23:20;12.30;99.90
32614;DHT22;19031;51.400;6.770;2023-04-24T15:25:46;12.60;99.90
32614;DHT22;19031;51.400;6.770;2023-04-24T15:28:11;12.70;99.90
32614;DHT22;19031;51.400;6.770;2023-04-24T15:30:37;12.70;99.90
32614;DHT22;19031;51.400;6.770;2023-04-24T15:33:03;12.60;99.90
32614;DHT22;19031;51.400;6.770;2023-04-24T15:35:28;12.60;99.90
32614;DHT22;19031;51.400;6.770;2023-04-24T15:37:54;12.80;99.90
32614;DHT22;19031;51.400;6.770;2023-04-24T15:40:20;12.80;99.90
32614;DHT22;19031;51.400;6.770;2023-04-24T15:42:45;12.70;99.90
32614;DHT22;19031;51.400;6.770;2023-04-24T15:45:11;12.60;99.90
32614;DHT22;19031;51.400;6.770;2023-04-24T15:47:37;12.60;99.90